createdAt,value
2022-12-11T00:00:25.010Z,-1.00
2022-12-11T00:02:51.619Z,-1.00
2022-12-11T00:05:18.413Z,-1.00
2022-12-11T00:07:45.028Z,-1.10
2022-12-11T00:10:11.736Z,-1.10
2022-12-11T00:12:38.624Z,-1.20
2022-12-11T00:15:05.670Z,-1.20
2022-12-11T00:17:32.295Z,-1.30
2022-12-11T00:19:58.955Z,-1.20
2022-12-11T00:22:25.597Z,-1.30
2022-12-11T00:24:52.254Z,-1.20
2022-12-11T00:27:18.957Z,-1.20
2022-12-11T00:29:45.615Z,-1.20
2022-12-11T05:31:47.782Z,-4.60
2022-12-11T05:34:15.889Z,-4.60
2022-12-11T05:36:42.567Z,-4.60
2022-12-11T05:39:11.424Z,-4.60
2022-12-11T05:41:38.226Z,-4.60
2022-12-11T05:44:05.051Z,-4.60
2022-12-11T05:46:31.830Z,-4.70
2022-12-11T05:49:01.304Z,-4.70
2022-12-11T05:51:29.071Z,-4.70
2022-12-11T05:53:56.814Z,-4.80
2022-12-11T05:56:27.124Z,-4.80
2022-12-11T05:58:54.826Z,-4.80
2022-12-11T06:01:27.296Z,-4.80
2022-12-11T06:03:55.533Z,-4.90
2022-12-11T06:06:23.400Z,-5.00
2022-12-11T06:08:51.833Z,-5.00
2022-12-11T06:11:23.729Z,-5.10
2022-12-11T06:13:50.671Z,-5.20
2022-12-11T06:16:20.981Z,-5.30
2022-12-11T06:18:47.688Z,-5.40
2022-12-11T06:21:23.662Z,-5.40
2022-12-11T06:23:52.519Z,-5.40
2022-12-11T06:26:19.665Z,-5.40
2022-12-11T06:28:46.791Z,-5.40
2022-12-11T06:31:14.080Z,-5.50
2022-12-11T06:33:43.196Z,-5.30
2022-12-11T06:36:16.483Z,-5.30
2022-12-11T06:38:43.581Z,-5.20
2022-12-11T06:41:10.584Z,-5.30
2022-12-11T06:43:38.797Z,-5.20
2022-12-11T06:46:06.402Z,-5.30
2022-12-11T06:48:33.418Z,-5.50
2022-12-11T06:51:00.138Z,-5.60
2022-12-11T06:53:26.786Z,-5.70
2022-12-11T06:55:53.445Z,-5.70
2022-12-11T06:58:20.172Z,-5.70
2022-12-11T07:00:46.898Z,-5.80
2022-12-11T07:03:13.717Z,-5.90
2022-12-11T07:05:40.445Z,-6.00
2022-12-11T07:08:07.391Z,-6.00
2022-12-11T07:10:34.301Z,-6.00
2022-12-11T07:13:00.927Z,-6.00
2022-12-11T07:15:27.526Z,-6.00
2022-12-11T07:17:54.175Z,-6.00
2022-12-11T07:20:20.836Z,-6.00
2022-12-11T07:22:47.460Z,-6.10
2022-12-11T07:25:14.462Z,-6.00
2022-12-11T07:27:41.625Z,-6.00
2022-12-11T07:30:09.172Z,-6.00
2022-12-11T07:32:35.866Z,-5.90
2022-12-11T07:35:02.866Z,-6.00
2022-12-11T07:37:29.475Z,-6.00
2022-12-11T07:39:56.047Z,-5.80
2022-12-11T07:42:22.700Z,-5.80
2022-12-11T07:44:49.729Z,-5.70
2022-12-11T07:47:16.397Z,-5.70
2022-12-11T07:49:42.991Z,-5.60
2022-12-11T07:52:10.090Z,-5.60
2022-12-11T07:54:36.812Z,-5.60
2022-12-11T07:57:03.509Z,-5.40
2022-12-11T07:59:30.155Z,-5.30
2022-12-11T08:01:56.786Z,-5.30
2022-12-11T08:04:23.415Z,-5.20
2022-12-11T08:06:49.995Z,-5.10
2022-12-11T08:09:21.087Z,-4.80
2022-12-11T08:11:52.017Z,-4.50
2022-12-11T08:14:19.491Z,-4.10
2022-12-11T08:16:46.299Z,-3.70
2022-12-11T08:19:13.626Z,-3.20
2022-12-11T08:21:41.083Z,-2.30
2022-12-11T08:24:08.790Z,-1.30
2022-12-11T08:26:35.426Z,-0.20
2022-12-11T08:29:02.781Z,0.90
2022-12-11T08:31:29.869Z,2.00
2022-12-11T08:33:56.854Z,3.00
2022-12-11T08:36:24.445Z,3.90
2022-12-11T08:38:51.692Z,4.50
2022-12-11T08:41:24.355Z,5.30
2022-12-11T08:43:55.123Z,5.20
2022-12-11T08:46:24.018Z,5.80
2022-12-11T08:48:51.423Z,6.70
2022-12-11T08:51:24.251Z,7.60
2022-12-11T08:53:51.619Z,8.50
2022-12-11T08:56:20.495Z,8.90
2022-12-11T08:58:47.744Z,9.40
2022-12-11T09:01:18.025Z,9.80
2022-12-11T09:03:45.020Z,10.90
2022-12-11T09:06:15.034Z,12.00
2022-12-11T09:08:47.286Z,12.80
2022-12-11T09:11:25.662Z,13.10
2022-12-11T09:13:52.786Z,12.90
2022-12-11T09:16:21.550Z,12.70
2022-12-11T09:18:50.372Z,13.10
2022-12-11T09:21:19.991Z,13.40
2022-12-11T09:23:47.409Z,13.90
2022-12-11T09:26:16.815Z,14.50
2022-12-11T09:28:46.588Z,14.30
2022-12-11T09:31:13.698Z,14.10
2022-12-11T09:33:40.626Z,14.90
2022-12-11T09:36:07.764Z,14.80
2022-12-11T09:38:36.342Z,14.50
2022-12-11T09:41:35.849Z,14.80
2022-12-11T09:44:14.483Z,15.50
2022-12-11T09:46:42.324Z,16.00
2022-12-11T09:49:34.155Z,16.40
2022-12-11T09:52:33.044Z,17.00
2022-12-11T09:55:03.306Z,17.90
2022-12-11T09:57:37.690Z,18.50
2022-12-11T10:00:11.378Z,18.80
2022-12-11T10:02:38.137Z,19.20
2022-12-11T10:05:26.498Z,19.50
2022-12-11T10:08:08.797Z,19.30
2022-12-11T10:10:54.204Z,18.80
2022-12-11T10:13:55.865Z,17.00
2022-12-11T10:16:34.664Z,15.90
2022-12-11T10:19:01.598Z,14.40
2022-12-11T10:21:36.418Z,13.10
2022-12-11T10:24:05.865Z,14.10
2022-12-11T10:26:32.573Z,14.90
2022-12-11T10:29:00.802Z,15.80
2022-12-11T10:31:46.124Z,16.10
2022-12-11T10:34:18.663Z,16.40
2022-12-11T10:36:45.366Z,16.60
2022-12-11T10:39:22.508Z,15.70
2022-12-11T10:41:50.958Z,15.40
2022-12-11T10:44:21.716Z,15.20
2022-12-11T10:47:02.348Z,14.50
2022-12-11T10:49:33.145Z,13.90
2022-12-11T10:52:02.874Z,14.60
2022-12-11T10:54:33.676Z,14.80
2022-12-11T10:57:02.136Z,14.00
2022-12-11T10:59:47.665Z,14.00
2022-12-11T11:02:26.143Z,13.90
2022-12-11T11:04:55.085Z,13.70
2022-12-11T11:07:30.295Z,14.00
2022-12-11T11:10:12.196Z,14.80
2022-12-11T11:12:42.039Z,15.70
2022-12-11T11:15:34.808Z,15.90
2022-12-11T11:18:11.144Z,15.60
2022-12-11T11:20:46.691Z,14.80
2022-12-11T11:23:16.385Z,15.40
2022-12-11T11:26:02.493Z,15.90
2022-12-11T11:28:42.673Z,16.50
2022-12-11T11:31:14.461Z,16.40
2022-12-11T11:34:12.891Z,16.10
2022-12-11T11:36:39.715Z,15.30
2022-12-11T11:39:37.453Z,14.50
2022-12-11T11:42:06.871Z,13.80
2022-12-11T11:44:46.847Z,13.50
2022-12-11T11:47:22.891Z,14.20
2022-12-11T11:50:11.707Z,13.90
2022-12-11T11:52:46.502Z,14.00
2022-12-11T11:55:22.664Z,13.70
2022-12-11T11:58:08.513Z,13.30
2022-12-11T12:00:35.236Z,13.00
2022-12-11T12:03:09.506Z,12.50
2022-12-11T12:05:41.748Z,11.90
2022-12-11T12:08:24.389Z,11.90
2022-12-11T12:11:11.864Z,11.70
2022-12-11T12:14:17.582Z,11.30
2022-12-11T12:17:04.891Z,10.70
2022-12-11T12:19:43.279Z,10.20
2022-12-11T12:22:28.775Z,10.00
2022-12-11T12:25:10.707Z,9.50
2022-12-11T12:28:07.558Z,9.20
2022-12-11T12:30:58.086Z,8.70
2022-12-11T12:33:38.508Z,7.90
2022-12-11T12:36:17.061Z,7.20
2022-12-11T12:38:55.021Z,6.80
2022-12-11T12:41:44.702Z,6.50
2022-12-11T12:44:21.726Z,6.00
2022-12-11T12:46:59.923Z,5.70
2022-12-11T12:49:40.756Z,5.30
2022-12-11T12:52:15.191Z,4.90
2022-12-11T12:55:05.457Z,4.90
2022-12-11T12:57:33.777Z,5.00
2022-12-11T13:00:00.493Z,4.90
2022-12-11T13:02:27.687Z,4.80
2022-12-11T13:05:07.537Z,4.60
2022-12-11T13:07:34.310Z,4.60
2022-12-11T13:10:07.674Z,4.60
2022-12-11T13:12:43.519Z,4.70
2022-12-11T13:15:31.373Z,4.80
2022-12-11T13:17:59.193Z,4.80
2022-12-11T13:20:28.662Z,4.80
2022-12-11T13:23:07.386Z,4.70
2022-12-11T13:25:58.523Z,4.70
2022-12-11T13:28:27.246Z,4.80
2022-12-11T13:31:17.548Z,4.70
2022-12-11T13:33:48.904Z,4.80
2022-12-11T13:36:24.131Z,4.90
2022-12-11T13:38:55.740Z,4.70
2022-12-11T13:41:23.571Z,4.50
2022-12-11T13:43:51.493Z,4.30
2022-12-11T13:46:31.875Z,4.10
2022-12-11T13:49:02.289Z,3.90
2022-12-11T13:51:31.454Z,3.60
2022-12-11T13:54:05.038Z,3.50
2022-12-11T13:56:31.699Z,3.40
2022-12-11T13:58:58.577Z,3.20
2022-12-11T14:01:29.091Z,3.20
2022-12-11T14:03:58.909Z,3.20
2022-12-11T14:06:28.381Z,3.00
2022-12-11T14:08:58.708Z,2.90
2022-12-11T14:11:29.993Z,2.70
2022-12-11T14:14:00.054Z,2.40
2022-12-11T14:16:27.736Z,2.10
2022-12-11T14:18:57.620Z,1.60
2022-12-11T14:21:25.722Z,1.30
2022-12-11T14:24:00.916Z,1.00
2022-12-11T14:26:30.233Z,0.70
2022-12-11T14:28:57.196Z,0.30
2022-12-11T14:31:31.484Z,-0.20
2022-12-11T14:34:03.703Z,-0.40
2022-12-11T14:36:31.708Z,-0.50
2022-12-11T14:39:05.310Z,-0.60
2022-12-11T14:41:53.640Z,-0.80
2022-12-11T14:44:23.703Z,-0.90
2022-12-11T14:46:57.946Z,-0.90
2022-12-11T14:49:58.800Z,-0.90
2022-12-11T14:52:47.197Z,-1.00
2022-12-11T14:55:21.885Z,-1.30
2022-12-11T14:57:52.588Z,-1.40
2022-12-11T15:00:31.906Z,-1.50
2022-12-11T15:03:22.548Z,-1.60
2022-12-11T15:05:58.488Z,-1.60
2022-12-11T15:08:34.153Z,-1.70
2022-12-11T15:11:10.381Z,-1.70
2022-12-11T15:13:58.542Z,-1.70
2022-12-11T15:16:27.702Z,-1.90
2022-12-11T15:18:56.421Z,-1.90
2022-12-11T15:21:35.428Z,-2.00
2022-12-11T15:24:06.949Z,-2.00
2022-12-11T15:27:01.219Z,-2.00
2022-12-11T15:29:35.280Z,-2.10
2022-12-11T15:32:09.246Z,-2.20
2022-12-11T15:34:43.881Z,-2.30
2022-12-11T15:37:32.535Z,-2.40
2022-12-11T15:40:01.947Z,-2.30
2022-12-11T15:42:34.788Z,-2.30
2022-12-11T15:45:02.751Z,-2.20
2022-12-11T15:47:30.960Z,-2.30
2022-12-11T15:50:00.636Z,-2.30
2022-12-11T15:52:27.385Z,-2.50
2022-12-11T15:54:54.146Z,-2.60
2022-12-11T15:57:23.718Z,-2.60
2022-12-11T15:59:52.883Z,-2.60
2022-12-11T16:02:19.880Z,-2.60
2022-12-11T16:04:46.538Z,-2.90
2022-12-11T16:07:17.719Z,-3.00
2022-12-11T16:09:45.498Z,-3.00
2022-12-11T16:12:13.776Z,-3.10
2022-12-11T16:14:41.484Z,-3.20
2022-12-11T16:17:09.990Z,-3.30
2022-12-11T16:19:37.508Z,-3.30
2022-12-11T16:22:04.731Z,-3.30
2022-12-11T16:24:31.946Z,-3.30
2022-12-11T16:26:58.650Z,-3.40
2022-12-11T16:29:25.234Z,-3.40
2022-12-11T16:31:51.905Z,-3.40
2022-12-11T16:34:19.050Z,-3.50
2022-12-11T16:36:45.703Z,-3.50
2022-12-11T16:39:12.598Z,-3.40
2022-12-11T16:41:39.467Z,-3.40
2022-12-11T16:44:06.645Z,-3.40
2022-12-11T16:46:33.434Z,-3.40
2022-12-11T16:49:00.136Z,-3.40
2022-12-11T16:51:26.943Z,-3.40
2022-12-11T16:53:53.636Z,-3.50
2022-12-11T16:56:20.499Z,-3.50
2022-12-11T16:58:47.686Z,-3.50
2022-12-11T17:01:15.517Z,-3.60
2022-12-11T17:03:43.604Z,-3.60
2022-12-11T17:06:12.276Z,-3.60
2022-12-11T17:08:39.616Z,-3.70
2022-12-11T17:11:07.905Z,-3.60
2022-12-11T17:13:36.441Z,-3.60
2022-12-11T17:16:14.951Z,-3.70
2022-12-11T17:18:42.910Z,-3.70
2022-12-11T17:21:15.558Z,-3.90
2022-12-11T17:23:42.240Z,-3.90
2022-12-11T17:26:09.483Z,-4.10
2022-12-11T17:28:37.460Z,-4.20
2022-12-11T17:31:09.253Z,-4.30
2022-12-11T17:33:35.969Z,-4.30
2022-12-11T17:36:05.226Z,-4.20
2022-12-11T17:38:31.885Z,-4.20
2022-12-11T17:40:58.691Z,-4.20
2022-12-11T17:43:25.683Z,-4.20
2022-12-11T17:45:52.794Z,-4.30
2022-12-11T17:48:22.247Z,-4.30
2022-12-11T17:50:50.436Z,-4.30
2022-12-11T17:53:18.300Z,-4.30
2022-12-11T17:55:46.133Z,-4.30
2022-12-11T17:58:23.258Z,-4.30
2022-12-11T18:00:54.102Z,-4.30
2022-12-11T18:03:21.396Z,-4.40
2022-12-11T18:05:50.932Z,-4.40
2022-12-11T18:08:25.883Z,-4.50
2022-12-11T18:10:54.254Z,-4.50
2022-12-11T18:13:21.945Z,-4.60
2022-12-11T18:16:00.944Z,-4.50
2022-12-11T18:18:27.673Z,-4.50
2022-12-11T18:20:54.320Z,-4.60
2022-12-11T18:23:21.041Z,-4.60
2022-12-11T18:25:47.668Z,-4.60
2022-12-11T18:28:14.528Z,-4.60
2022-12-11T18:30:41.229Z,-4.70
2022-12-11T18:33:07.859Z,-4.80
2022-12-11T18:35:34.614Z,-4.70
2022-12-11T18:38:01.304Z,-4.70
2022-12-11T18:40:28.784Z,-4.70
2022-12-11T18:42:55.744Z,-4.70
2022-12-11T18:45:22.349Z,-4.70
2022-12-11T18:47:51.924Z,-4.70
2022-12-11T18:50:18.825Z,-4.70
2022-12-11T18:52:45.444Z,-4.80
2022-12-11T18:55:12.487Z,-4.80
2022-12-11T18:57:39.591Z,-4.90
2022-12-11T19:00:07.393Z,-4.90
2022-12-11T19:02:35.400Z,-5.00
2022-12-11T19:05:02.531Z,-4.90
2022-12-11T19:07:29.330Z,-4.90
2022-12-11T19:09:55.902Z,-5.00
2022-12-11T19:12:22.661Z,-5.00
2022-12-11T19:14:49.298Z,-5.10
2022-12-11T19:17:15.917Z,-5.10
2022-12-11T19:19:44.862Z,-5.20
2022-12-11T19:22:11.664Z,-5.20
2022-12-11T19:24:38.313Z,-5.20
2022-12-11T19:27:09.972Z,-5.30
2022-12-11T19:29:39.847Z,-5.40
2022-12-11T19:32:06.613Z,-5.30
2022-12-11T19:34:33.308Z,-5.40
2022-12-11T19:37:00.114Z,-5.40
2022-12-11T19:39:26.828Z,-5.30
2022-12-11T19:41:53.465Z,-5.20
2022-12-11T19:44:20.073Z,-5.20
2022-12-11T19:46:46.744Z,-5.20
2022-12-11T19:49:13.440Z,-5.20
2022-12-11T19:51:41.670Z,-5.10
2022-12-11T19:54:11.363Z,-5.20
2022-12-11T19:56:38.524Z,-5.30
2022-12-11T19:59:08.333Z,-5.20
2022-12-11T20:01:37.008Z,-5.10
2022-12-11T20:04:10.539Z,-5.10
2022-12-11T20:06:38.362Z,-5.10
2022-12-11T20:09:07.372Z,-5.10
2022-12-11T20:11:34.287Z,-5.10
2022-12-11T20:14:01.019Z,-5.10
2022-12-11T20:16:53.702Z,-5.10
2022-12-11T20:19:15.403Z,-5.30
2022-12-11T20:21:42.482Z,-5.30
2022-12-11T20:24:10.245Z,-5.20
2022-12-11T20:26:38.058Z,-5.10
2022-12-11T20:29:08.073Z,-5.10
2022-12-11T20:31:35.858Z,-5.10
2022-12-11T20:34:02.932Z,-5.10
2022-12-11T20:36:29.856Z,-5.20
2022-12-11T20:38:56.542Z,-5.20
2022-12-11T20:41:24.985Z,-5.40
2022-12-11T20:43:54.573Z,-5.60
2022-12-11T20:46:24.818Z,-5.60
2022-12-11T20:48:51.961Z,-5.70
2022-12-11T20:51:25.784Z,-5.70
2022-12-11T20:53:58.615Z,-5.70
2022-12-11T20:56:28.023Z,-5.60
2022-12-11T20:58:54.923Z,-5.50
2022-12-11T21:01:26.722Z,-5.40
2022-12-11T21:03:53.548Z,-5.30
2022-12-11T21:06:23.085Z,-5.20
2022-12-11T21:08:49.765Z,-5.20
2022-12-11T21:11:16.406Z,-5.40
2022-12-11T21:13:43.131Z,-5.40
2022-12-11T21:16:10.873Z,-5.40
2022-12-11T21:18:38.585Z,-5.50
2022-12-11T21:21:06.208Z,-5.50
2022-12-11T21:23:33.630Z,-5.50
2022-12-11T21:26:00.245Z,-5.50
2022-12-11T21:28:30.580Z,-5.50
2022-12-11T21:31:13.119Z,-5.50
2022-12-11T21:33:39.854Z,-5.50
2022-12-11T21:36:09.137Z,-5.60
2022-12-11T21:38:35.735Z,-5.60
2022-12-11T21:41:14.525Z,-5.60
2022-12-11T21:44:00.503Z,-5.70
2022-12-11T21:46:29.770Z,-5.70
2022-12-11T21:48:56.449Z,-5.70
2022-12-11T21:51:31.063Z,-5.80
2022-12-11T21:54:03.917Z,-5.80
2022-12-11T21:56:31.933Z,-5.80
2022-12-11T21:58:58.611Z,-5.90
2022-12-11T22:01:33.304Z,-5.90
2022-12-11T22:04:00.261Z,-5.90
2022-12-11T22:06:27.278Z,-5.90
2022-12-11T22:08:53.920Z,-5.90
2022-12-11T22:11:24.281Z,-5.90
2022-12-11T22:13:50.991Z,-5.90
2022-12-11T22:16:18.228Z,-6.00
2022-12-11T22:18:45.446Z,-6.10
2022-12-11T22:21:12.353Z,-6.10
2022-12-11T22:23:39.934Z,-6.20
2022-12-11T22:26:07.946Z,-6.20
2022-12-11T22:28:34.710Z,-6.20
2022-12-11T22:31:01.865Z,-6.10
2022-12-11T22:33:28.516Z,-6.10
2022-12-11T22:35:56.959Z,-6.20
2022-12-11T22:38:24.025Z,-6.20
2022-12-11T22:40:50.704Z,-6.30
2022-12-11T22:43:17.463Z,-6.40
2022-12-11T22:45:44.152Z,-6.40
2022-12-11T22:48:11.060Z,-6.50
2022-12-11T22:50:39.641Z,-6.50
2022-12-11T22:53:06.561Z,-6.50
2022-12-11T22:55:33.989Z,-6.60
2022-12-11T22:58:00.577Z,-6.60
2022-12-11T23:00:27.243Z,-6.70
2022-12-11T23:02:53.993Z,-6.70
2022-12-11T23:05:20.718Z,-6.70
2022-12-11T23:07:47.467Z,-6.70
2022-12-11T23:10:14.257Z,-6.80
2022-12-11T23:12:40.997Z,-6.80
2022-12-11T23:15:08.111Z,-6.80
2022-12-11T23:17:34.717Z,-6.80
2022-12-11T23:20:03.749Z,-6.90
2022-12-11T23:22:30.611Z,-6.90
2022-12-11T23:24:57.430Z,-6.90
2022-12-11T23:27:24.084Z,-7.00
2022-12-11T23:29:50.682Z,-7.00
2022-12-11T23:32:17.351Z,-7.00
2022-12-11T23:34:43.943Z,-7.10
2022-12-11T23:37:10.696Z,-7.20
2022-12-11T23:39:37.284Z,-7.10
2022-12-11T23:42:04.068Z,-7.10
2022-12-11T23:44:30.785Z,-7.00
2022-12-11T23:46:57.420Z,-7.10
2022-12-11T23:49:24.054Z,-7.10
2022-12-11T23:51:50.728Z,-7.10
2022-12-11T23:54:17.342Z,-7.10
2022-12-11T23:56:43.956Z,-7.00
2022-12-11T23:59:14.417Z,-7.00
